sensor_id;sensor_type;location;lat;lon;timestamp;temperature;humidity
19330;DHT22;9799;48.214;16.388;2024-01-10T00:01:17;-4.40;99.90
19330;DHT22;9799;48.214;16.388;2024-01-10T00:04:39;-4.40;99.90
19330;DHT22;9799;48.214;16.388;2024-01-10T00:08:01;-4.30;99.90
19330;DHT22;9799;48.214;16.388;2024-01-10T00:11:32;-4.10;99.90
19330;DHT22;9799;48.214;16.388;2024-01-10T00:14:53;-4.00;99.90
19330;DHT22;9799;48.214;16.388;2024-01-10T00:18:14;-4.20;99.90
19330;DHT22;9799;48.214;16.388;2024-01-10T00:21:35;-4.40;99.90
19330;DHT22;9799;48.214;16.388;2024-01-10T00:24:58;-4.70;99.90
19330;DHT22;9799;48.214;16.388;2024-01-10T00:28:19;-4.50;99.90
19330;DHT22;9799;48.214;16.388;2024-01-10T00:31:40;-4.40;99.90
19330;DHT22;9799;48.214;16.388;2024-01-10T00:35:02;-4.60;99.90
19330;DHT22;9799;48.214;16.388;2024-01-10T00:38:23;-4.60;99.90
19330;DHT22;9799;48.214;16.388;2024-01-10T00:41:45;-4.90;99.90
19330;DHT22;9799;48.214;16.388;2024-01-10T00:45:07;-4.90;99.90
19330;DHT22;9799;48.214;16.388;2024-01-10T00:48:28;-4.90;99.90
19330;DHT22;9799;48.214;16.388;2024-01-10T00:51:50;-4.60;99.90
19330;DHT22;9799;48.214;16.388;2024-01-10T00:55:12;-4.50;99.90
19330;DHT22;9799;48.214;16.388;2024-01-10T00:58:37;-4.80;99.90
19330;DHT22;9799;48.214;16.388;2024-01-10T01:01:59;-4.90;99.90
19330;DHT22;9799;48.214;16.388;2024-01-10T01:05:22;-4.90;99.90
19330;DHT22;9799;48.214;16.388;2024-01-10T01:08:44;-4.90;99.90
19330;DHT22;9799;48.214;16.388;2024-01-10T01:12:08;-4.90;99.90
19330;DHT22;9799;48.214;16.388;2024-01-10T01:15:32;-4.70;99.90
19330;DHT22;9799;48.214;16.388;2024-01-10T01:18:55;-4.80;99.90
19330;DHT22;9799;48.214;16.388;2024-01-10T01:22:17;-4.80;99.90
19330;DHT22;9799;48.214;16.388;2024-01-10T01:25:39;-4.90;99.90
19330;DHT22;9799;48.214;16.388;2024-01-10T01:29:00;-5.10;99.90
19330;DHT22;9799;48.214;16.388;2024-01-10T01:32:23;-5.00;99.90
19330;DHT22;9799;48.214;16.388;2024-01-10T01:35:44;-5.10;99.90
19330;DHT22;9799;48.214;16.388;2024-01-10T01:39:07;-5.10;99.90
19330;DHT22;9799;48.214;16.388;2024-01-10T01:42:29;-5.10;99.90
19330;DHT22;9799;48.214;16.388;2024-01-10T01:45:54;-5.10;99.90
19330;DHT22;9799;48.214;16.388;2024-01-10T01:49:18;-5.20;99.90
19330;DHT22;9799;48.214;16.388;2024-01-10T01:52:41;-5.20;99.90
19330;DHT22;9799;48.214;16.388;2024-01-10T01:56:06;-5.20;99.90
19330;DHT22;9799;48.214;16.388;2024-01-10T01:59:28;-5.40;99.90
19330;DHT22;9799;48.214;16.388;2024-01-10T02:02:49;-5.30;99.90
19330;DHT22;9799;48.214;16.388;2024-01-10T02:06:13;-5.50;99.90
19330;DHT22;9799;48.214;16.388;2024-01-10T02:09:34;-5.40;99.90
19330;DHT22;9799;48.214;16.388;2024-01-10T02:12:55;-5.50;99.90
19330;DHT22;9799;48.214;16.388;2024-01-10T02:16:17;-5.40;99.90
19330;DHT22;9799;48.214;16.388;2024-01-10T02:19:39;-5.40;99.90
19330;DHT22;9799;48.214;16.388;2024-01-10T02:23:01;-5.50;99.90
19330;DHT22;9799;48.214;16.388;2024-01-10T02:26:23;-5.50;99.90
19330;DHT22;9799;48.214;16.388;2024-01-10T02:29:46;-5.40;99.90
19330;DHT22;9799;48.214;16.388;2024-01-10T02:33:08;-5.40;99.90
19330;DHT22;9799;48.214;16.388;2024-01-10T02:36:29;-5.70;99.90
19330;DHT22;9799;48.214;16.388;2024-01-10T02:39:50;-5.70;99.90
19330;DHT22;9799;48.214;16.388;2024-01-10T02:43:13;-5.80;99.90
19330;DHT22;9799;48.214;16.388;2024-01-10T02:46:34;-5.60;99.90
19330;DHT22;9799;48.214;16.388;2024-01-10T02:49:55;-5.60;99.90
19330;DHT22;9799;48.214;16.388;2024-01-10T02:53:16;-5.60;99.90
19330;DHT22;9799;48.214;16.388;2024-01-10T02:56:37;-5.60;99.90
19330;DHT22;9799;48.214;16.388;2024-01-10T03:00:00;-5.50;99.90
19330;DHT22;9799;48.214;16.388;2024-01-10T03:03:21;-5.30;99.90
19330;DHT22;9799;48.214;16.388;2024-01-10T03:06:42;-5.30;99.90
19330;DHT22;9799;48.214;16.388;2024-01-10T03:10:03;-5.50;99.90
19330;DHT22;9799;48.214;16.388;2024-01-10T03:13:25;-5.70;99.90
19330;DHT22;9799;48.214;16.388;2024-01-10T03:16:47;-5.70;99.90
19330;DHT22;9799;48.214;16.388;2024-01-10T03:20:09;-5.60;99.90
19330;DHT22;9799;48.214;16.388;2024-01-10T03:23:30;-5.70;99.90
19330;DHT22;9799;48.214;16.388;2024-01-10T03:26:51;-5.70;99.90
19330;DHT22;9799;48.214;16.388;2024-01-10T03:30:13;-5.60;99.90
19330;DHT22;9799;48.214;16.388;2024-01-10T03:33:35;-5.30;99.90
19330;DHT22;9799;48.214;16.388;2024-01-10T03:36:56;-5.70;99.90
19330;DHT22;9799;48.214;16.388;2024-01-10T03:40:17;-5.80;99.90
19330;DHT22;9799;48.214;16.388;2024-01-10T03:43:38;-5.70;99.90
19330;DHT22;9799;48.214;16.388;2024-01-10T03:46:59;-5.70;99.90
19330;DHT22;9799;48.214;16.388;2024-01-10T03:50:22;-5.50;99.90
19330;DHT22;9799;48.214;16.388;2024-01-10T03:53:43;-5.80;99.90
19330;DHT22;9799;48.214;16.388;2024-01-10T03:57:04;-5.80;99.90
19330;DHT22;9799;48.214;16.388;2024-01-10T04:00:26;-5.80;99.90
19330;DHT22;9799;48.214;16.388;2024-01-10T04:03:47;-5.80;99.90
19330;DHT22;9799;48.214;16.388;2024-01-10T04:07:09;-6.00;99.90
19330;DHT22;9799;48.214;16.388;2024-01-10T04:10:30;-6.00;99.90
19330;DHT22;9799;48.214;16.388;2024-01-10T04:13:51;-5.90;99.90
19330;DHT22;9799;48.214;16.388;2024-01-10T04:17:13;-5.80;99.90
19330;DHT22;9799;48.214;16.388;2024-01-10T04:20:34;-5.90;99.90
19330;DHT22;9799;48.214;16.388;2024-01-10T04:23:56;-5.70;99.90
19330;DHT22;9799;48.214;16.388;2024-01-10T04:27:17;-5.70;99.90
19330;DHT22;9799;48.214;16.388;2024-01-10T04:30:39;-5.90;99.90
19330;DHT22;9799;48.214;16.388;2024-01-10T04:34:00;-5.90;99.90
19330;DHT22;9799;48.214;16.388;2024-01-10T04:37:21;-6.00;99.90
19330;DHT22;9799;48.214;16.388;2024-01-10T04:40:43;-6.00;99.90
19330;DHT22;9799;48.214;16.388;2024-01-10T04:44:04;-5.90;99.90
19330;DHT22;9799;48.214;16.388;2024-01-10T04:47:26;-5.80;99.90
19330;DHT22;9799;48.214;16.388;2024-01-10T04:50:47;-5.80;99.90
19330;DHT22;9799;48.214;16.388;2024-01-10T04:54:08;-5.80;99.90
19330;DHT22;9799;48.214;16.388;2024-01-10T04:57:31;-5.80;99.90
19330;DHT22;9799;48.214;16.388;2024-01-10T05:00:52;-5.90;99.90
19330;DHT22;9799;48.214;16.388;2024-01-10T05:04:13;-5.80;99.90
19330;DHT22;9799;48.214;16.388;2024-01-10T05:07:34;-5.80;99.90
19330;DHT22;9799;48.214;16.388;2024-01-10T05:10:55;-5.80;99.90
19330;DHT22;9799;48.214;16.388;2024-01-10T05:14:18;-5.80;99.90
19330;DHT22;9799;48.214;16.388;2024-01-10T05:17:41;-5.80;99.90
19330;DHT22;9799;48.214;16.388;2024-01-10T05:21:02;-5.70;99.90
19330;DHT22;9799;48.214;16.388;2024-01-10T05:24:24;-5.80;99.90
19330;DHT22;9799;48.214;16.388;2024-01-10T05:27:45;-5.80;99.90
19330;DHT22;9799;48.214;16.388;2024-01-10T05:31:08;-5.80;99.90
19330;DHT22;9799;48.214;16.388;2024-01-10T05:34:29;-5.60;99.90
19330;DHT22;9799;48.214;16.388;2024-01-10T05:37:50;-5.70;99.90
19330;DHT22;9799;48.214;16.388;2024-01-10T05:41:11;-5.70;99.90
19330;DHT22;9799;48.214;16.388;2024-01-10T05:44:34;-5.90;99.90
19330;DHT22;9799;48.214;16.388;2024-01-10T05:47:56;-5.90;99.90
19330;DHT22;9799;48.214;16.388;2024-01-10T05:51:18;-5.80;99.90
19330;DHT22;9799;48.214;16.388;2024-01-10T05:54:39;-5.70;99.90
19330;DHT22;9799;48.214;16.388;2024-01-10T05:58:00;-5.80;99.90
19330;DHT22;9799;48.214;16.388;2024-01-10T06:01:21;-5.70;99.90
19330;DHT22;9799;48.214;16.388;2024-01-10T06:04:43;-5.80;99.90
19330;DHT22;9799;48.214;16.388;2024-01-10T06:08:05;-5.90;99.90
19330;DHT22;9799;48.214;16.388;2024-01-10T06:11:26;-5.90;99.90
19330;DHT22;9799;48.214;16.388;2024-01-10T06:14:49;-5.80;99.90
19330;DHT22;9799;48.214;16.388;2024-01-10T06:18:10;-5.70;99.90
19330;DHT22;9799;48.214;16.388;2024-01-10T06:21:32;-5.70;99.90
19330;DHT22;9799;48.214;16.388;2024-01-10T06:24:54;-5.70;99.90
19330;DHT22;9799;48.214;16.388;2024-01-10T06:28:15;-5.70;99.90
19330;DHT22;9799;48.214;16.388;2024-01-10T06:31:36;-5.60;99.90
19330;DHT22;9799;48.214;16.388;2024-01-10T06:34:57;-5.70;99.90
19330;DHT22;9799;48.214;16.388;2024-01-10T06:38:21;-5.60;99.90
19330;DHT22;9799;48.214;16.388;2024-01-10T06:41:43;-5.60;99.90
19330;DHT22;9799;48.214;16.388;2024-01-10T06:45:05;-5.70;99.90
19330;DHT22;9799;48.214;16.388;2024-01-10T06:48:27;-5.70;99.90
19330;DHT22;9799;48.214;16.388;2024-01-10T06:51:48;-5.60;99.90
19330;DHT22;9799;48.214;16.388;2024-01-10T06:55:11;-5.60;99.90
19330;DHT22;9799;48.214;16.388;2024-01-10T06:58:33;-5.50;99.90
19330;DHT22;9799;48.214;16.388;2024-01-10T07:01:54;-5.50;99.90
19330;DHT22;9799;48.214;16.388;2024-01-10T07:05:15;-5.50;99.90
19330;DHT22;9799;48.214;16.388;2024-01-10T07:08:37;-5.60;99.90
19330;DHT22;9799;48.214;16.388;2024-01-10T07:11:59;-5.70;99.90
19330;DHT22;9799;48.214;16.388;2024-01-10T07:15:20;-5.60;99.90
19330;DHT22;9799;48.214;16.388;2024-01-10T07:18:42;-5.60;99.90
19330;DHT22;9799;48.214;16.388;2024-01-10T07:22:03;-5.60;99.90
19330;DHT22;9799;48.214;16.388;2024-01-10T07:25:24;-5.70;99.90
19330;DHT22;9799;48.214;16.388;2024-01-10T07:28:47;-5.70;99.90
19330;DHT22;9799;48.214;16.388;2024-01-10T07:32:08;-5.70;99.90
19330;DHT22;9799;48.214;16.388;2024-01-10T07:35:30;-5.70;99.90
19330;DHT22;9799;48.214;16.388;2024-01-10T07:38:52;-5.60;99.90
19330;DHT22;9799;48.214;16.388;2024-01-10T07:42:13;-5.70;99.90
19330;DHT22;9799;48.214;16.388;2024-01-10T07:45:35;-5.70;99.90
19330;DHT22;9799;48.214;16.388;2024-01-10T07:48:56;-5.60;99.90
19330;DHT22;9799;48.214;16.388;2024-01-10T07:52:20;-5.70;99.90
19330;DHT22;9799;48.214;16.388;2024-01-10T07:55:41;-5.60;99.90
19330;DHT22;9799;48.214;16.388;2024-01-10T07:59:02;-5.50;99.90
19330;DHT22;9799;48.214;16.388;2024-01-10T08:02:25;-5.40;99.90
19330;DHT22;9799;48.214;16.388;2024-01-10T08:05:46;-5.20;99.90
19330;DHT22;9799;48.214;16.388;2024-01-10T08:09:16;-5.10;99.90
19330;DHT22;9799;48.214;16.388;2024-01-10T08:12:39;-5.00;99.90
19330;DHT22;9799;48.214;16.388;2024-01-10T08:16:01;-4.90;99.90
19330;DHT22;9799;48.214;16.388;2024-01-10T08:19:23;-4.90;99.90
19330;DHT22;9799;48.214;16.388;2024-01-10T08:22:45;-4.80;99.90
19330;DHT22;9799;48.214;16.388;2024-01-10T08:26:08;-4.70;99.90
19330;DHT22;9799;48.214;16.388;2024-01-10T08:29:29;-4.60;99.90
19330;DHT22;9799;48.214;16.388;2024-01-10T08:32:52;-4.40;99.90
19330;DHT22;9799;48.214;16.388;2024-01-10T08:36:13;-4.30;99.90
19330;DHT22;9799;48.214;16.388;2024-01-10T08:39:34;-4.40;99.90
19330;DHT22;9799;48.214;16.388;2024-01-10T08:42:57;-4.20;99.90
19330;DHT22;9799;48.214;16.388;2024-01-10T08:46:18;-3.90;99.90
19330;DHT22;9799;48.214;16.388;2024-01-10T08:49:40;-3.50;99.90
19330;DHT22;9799;48.214;16.388;2024-01-10T08:53:01;-3.70;99.90
19330;DHT22;9799;48.214;16.388;2024-01-10T08:56:25;-4.00;99.90
19330;DHT22;9799;48.214;16.388;2024-01-10T08:59:47;-4.10;99.90
19330;DHT22;9799;48.214;16.388;2024-01-10T09:03:09;-4.00;99.90
19330;DHT22;9799;48.214;16.388;2024-01-10T09:06:30;-3.70;99.90
19330;DHT22;9799;48.214;16.388;2024-01-10T09:09:52;-3.70;99.90
19330;DHT22;9799;48.214;16.388;2024-01-10T09:13:13;-3.70;99.90
19330;DHT22;9799;48.214;16.388;2024-01-10T09:16:36;-3.70;99.90
19330;DHT22;9799;48.214;16.388;2024-01-10T09:19:58;-3.60;99.90
19330;DHT22;9799;48.214;16.388;2024-01-10T09:23:22;-3.50;99.90
19330;DHT22;9799;48.214;16.388;2024-01-10T09:26:43;-3.40;99.90
19330;DHT22;9799;48.214;16.388;2024-01-10T09:30:06;-3.50;99.90
19330;DHT22;9799;48.214;16.388;2024-01-10T09:33:30;-3.40;99.90
19330;DHT22;9799;48.214;16.388;2024-01-10T09:36:51;-3.10;99.90
19330;DHT22;9799;48.214;16.388;2024-01-10T09:40:14;-2.80;99.90
19330;DHT22;9799;48.214;16.388;2024-01-10T09:43:36;-2.80;99.90
19330;DHT22;9799;48.214;16.388;2024-01-10T09:46:57;-2.80;99.90
19330;DHT22;9799;48.214;16.388;2024-01-10T09:50:20;-2.90;99.90
19330;DHT22;9799;48.214;16.388;2024-01-10T09:53:44;-2.80;99.90
19330;DHT22;9799;48.214;16.388;2024-01-10T09:57:09;-2.80;99.90
19330;DHT22;9799;48.214;16.388;2024-01-10T10:00:32;-2.70;99.90
19330;DHT22;9799;48.214;16.388;2024-01-10T10:03:56;-2.60;99.90
19330;DHT22;9799;48.214;16.388;2024-01-10T10:07:19;-2.50;99.90
19330;DHT22;9799;48.214;16.388;2024-01-10T10:10:41;-2.30;99.90
19330;DHT22;9799;48.214;16.388;2024-01-10T10:14:17;-2.30;99.90
19330;DHT22;9799;48.214;16.388;2024-01-10T10:17:39;-2.20;99.90
19330;DHT22;9799;48.214;16.388;2024-01-10T10:21:07;-2.10;99.90
19330;DHT22;9799;48.214;16.388;2024-01-10T10:24:30;-2.00;99.90
19330;DHT22;9799;48.214;16.388;2024-01-10T10:27:51;-1.90;99.90
19330;DHT22;9799;48.214;16.388;2024-01-10T10:31:13;-1.80;99.90
19330;DHT22;9799;48.214;16.388;2024-01-10T10:34:36;-1.80;99.90
19330;DHT22;9799;48.214;16.388;2024-01-10T10:37:58;-1.60;99.90
19330;DHT22;9799;48.214;16.388;2024-01-10T10:41:21;-1.70;99.90
19330;DHT22;9799;48.214;16.388;2024-01-10T10:44:43;-1.50;99.90
19330;DHT22;9799;48.214;16.388;2024-01-10T10:48:08;-1.30;99.90
19330;DHT22;9799;48.214;16.388;2024-01-10T10:51:33;-1.30;99.90
19330;DHT22;9799;48.214;16.388;2024-01-10T10:54:56;-1.30;99.90
19330;DHT22;9799;48.214;16.388;2024-01-10T10:58:21;-1.10;99.90
19330;DHT22;9799;48.214;16.388;2024-01-10T11:01:42;-0.80;99.90
19330;DHT22;9799;48.214;16.388;2024-01-10T11:05:08;-0.70;99.90
19330;DHT22;9799;48.214;16.388;2024-01-10T11:08:32;-0.60;99.90
19330;DHT22;9799;48.214;16.388;2024-01-10T11:12:10;-0.40;99.90
19330;DHT22;9799;48.214;16.388;2024-01-10T11:15:47;-0.30;99.90
19330;DHT22;9799;48.214;16.388;2024-01-10T11:23:37;-0.30;99.90
19330;DHT22;9799;48.214;16.388;2024-01-10T11:27:07;-0.20;99.90
19330;DHT22;9799;48.214;16.388;2024-01-10T11:30:35;-0.10;99.90
19330;DHT22;9799;48.214;16.388;2024-01-10T11:34:00;0.00;99.90
19330;DHT22;9799;48.214;16.388;2024-01-10T11:37:22;0.00;99.90
19330;DHT22;9799;48.214;16.388;2024-01-10T11:40:46;-0.10;99.90
19330;DHT22;9799;48.214;16.388;2024-01-10T11:44:27;0.00;99.90
19330;DHT22;9799;48.214;16.388;2024-01-10T11:47:49;0.20;99.90
19330;DHT22;9799;48.214;16.388;2024-01-10T11:51:13;0.30;99.90
19330;DHT22;9799;48.214;16.388;2024-01-10T11:54:40;0.50;99.90
19330;DHT22;9799;48.214;16.388;2024-01-10T11:58:08;0.50;99.90
19330;DHT22;9799;48.214;16.388;2024-01-10T12:01:30;0.50;99.90
19330;DHT22;9799;48.214;16.388;2024-01-10T12:04:52;0.50;99.90
19330;DHT22;9799;48.214;16.388;2024-01-10T12:08:15;0.60;99.90
19330;DHT22;9799;48.214;16.388;2024-01-10T12:11:36;0.70;99.90
19330;DHT22;9799;48.214;16.388;2024-01-10T12:14:59;0.70;99.90
19330;DHT22;9799;48.214;16.388;2024-01-10T12:18:20;0.70;99.90
19330;DHT22;9799;48.214;16.388;2024-01-10T12:21:41;0.90;99.90
19330;DHT22;9799;48.214;16.388;2024-01-10T12:25:06;0.90;99.90
19330;DHT22;9799;48.214;16.388;2024-01-10T12:28:27;0.90;99.90
19330;DHT22;9799;48.214;16.388;2024-01-10T12:31:48;0.70;99.90
19330;DHT22;9799;48.214;16.388;2024-01-10T12:35:10;0.80;99.90
19330;DHT22;9799;48.214;16.388;2024-01-10T12:38:31;0.80;99.90
19330;DHT22;9799;48.214;16.388;2024-01-10T12:41:55;0.80;99.90
19330;DHT22;9799;48.214;16.388;2024-01-10T12:45:22;0.80;99.90
19330;DHT22;9799;48.214;16.388;2024-01-10T12:48:43;0.80;99.90
19330;DHT22;9799;48.214;16.388;2024-01-10T12:52:05;0.90;99.90
19330;DHT22;9799;48.214;16.388;2024-01-10T12:55:27;0.80;99.90
19330;DHT22;9799;48.214;16.388;2024-01-10T12:58:50;0.90;99.90
19330;DHT22;9799;48.214;16.388;2024-01-10T13:02:11;0.90;99.90
19330;DHT22;9799;48.214;16.388;2024-01-10T13:05:32;0.90;99.90
19330;DHT22;9799;48.214;16.388;2024-01-10T13:08:53;0.90;99.90
19330;DHT22;9799;48.214;16.388;2024-01-10T13:12:15;0.90;99.90
19330;DHT22;9799;48.214;16.388;2024-01-10T13:15:37;0.90;99.90
19330;DHT22;9799;48.214;16.388;2024-01-10T13:18:58;0.90;99.90
19330;DHT22;9799;48.214;16.388;2024-01-10T13:22:20;1.00;99.90
19330;DHT22;9799;48.214;16.388;2024-01-10T13:25:41;1.00;99.90
19330;DHT22;9799;48.214;16.388;2024-01-10T13:29:02;1.10;99.90
19330;DHT22;9799;48.214;16.388;2024-01-10T13:32:25;1.20;99.90
19330;DHT22;9799;48.214;16.388;2024-01-10T13:35:47;1.10;99.90
19330;DHT22;9799;48.214;16.388;2024-01-10T13:39:09;1.20;99.90
19330;DHT22;9799;48.214;16.388;2024-01-10T13:42:35;1.20;99.90
19330;DHT22;9799;48.214;16.388;2024-01-10T13:45:56;1.30;99.90
19330;DHT22;9799;48.214;16.388;2024-01-10T13:49:19;1.30;99.90
19330;DHT22;9799;48.214;16.388;2024-01-10T13:52:40;1.30;99.90
19330;DHT22;9799;48.214;16.388;2024-01-10T13:56:02;1.20;99.90
19330;DHT22;9799;48.214;16.388;2024-01-10T13:59:23;1.20;99.90
19330;DHT22;9799;48.214;16.388;2024-01-10T14:02:44;1.20;99.90
19330;DHT22;9799;48.214;16.388;2024-01-10T14:06:07;1.20;99.90
19330;DHT22;9799;48.214;16.388;2024-01-10T14:09:28;1.20;99.90
19330;DHT22;9799;48.214;16.388;2024-01-10T14:12:49;1.20;99.90
19330;DHT22;9799;48.214;16.388;2024-01-10T14:16:11;1.30;99.90
19330;DHT22;9799;48.214;16.388;2024-01-10T14:19:32;1.20;99.90
19330;DHT22;9799;48.214;16.388;2024-01-10T14:22:54;1.20;99.90
19330;DHT22;9799;48.214;16.388;2024-01-10T14:26:15;1.20;99.90
19330;DHT22;9799;48.214;16.388;2024-01-10T14:29:36;1.20;99.90
19330;DHT22;9799;48.214;16.388;2024-01-10T14:32:58;1.20;99.90
19330;DHT22;9799;48.214;16.388;2024-01-10T14:36:19;1.20;99.90
19330;DHT22;9799;48.214;16.388;2024-01-10T14:39:42;1.20;99.90
19330;DHT22;9799;48.214;16.388;2024-01-10T14:43:03;1.20;99.90
19330;DHT22;9799;48.214;16.388;2024-01-10T14:46:24;1.20;99.90
19330;DHT22;9799;48.214;16.388;2024-01-10T14:49:47;1.10;99.90
19330;DHT22;9799;48.214;16.388;2024-01-10T14:53:08;1.10;99.90
19330;DHT22;9799;48.214;16.388;2024-01-10T14:56:31;1.10;99.90
19330;DHT22;9799;48.214;16.388;2024-01-10T14:59:54;1.10;99.90
19330;DHT22;9799;48.214;16.388;2024-01-10T15:03:15;1.00;99.90
19330;DHT22;9799;48.214;16.388;2024-01-10T15:06:36;0.80;99.90
19330;DHT22;9799;48.214;16.388;2024-01-10T15:09:57;0.70;99.90
19330;DHT22;9799;48.214;16.388;2024-01-10T15:13:20;0.70;99.90
19330;DHT22;9799;48.214;16.388;2024-01-10T15:16:41;0.70;99.90
19330;DHT22;9799;48.214;16.388;2024-01-10T15:20:03;0.60;99.90
19330;DHT22;9799;48.214;16.388;2024-01-10T15:23:25;0.50;99.90
19330;DHT22;9799;48.214;16.388;2024-01-10T15:26:46;0.50;99.90
19330;DHT22;9799;48.214;16.388;2024-01-10T15:30:10;0.50;99.90
19330;DHT22;9799;48.214;16.388;2024-01-10T15:33:31;0.50;99.90
19330;DHT22;9799;48.214;16.388;2024-01-10T15:36:52;0.40;99.90
19330;DHT22;9799;48.214;16.388;2024-01-10T15:40:14;0.50;99.90
19330;DHT22;9799;48.214;16.388;2024-01-10T15:43:35;0.80;99.90
19330;DHT22;9799;48.214;16.388;2024-01-10T15:46:58;0.60;99.90
19330;DHT22;9799;48.214;16.388;2024-01-10T15:50:19;0.50;99.90
19330;DHT22;9799;48.214;16.388;2024-01-10T15:53:40;0.50;99.90
19330;DHT22;9799;48.214;16.388;2024-01-10T15:57:04;0.50;99.90
19330;DHT22;9799;48.214;16.388;2024-01-10T16:00:25;0.50;99.90
19330;DHT22;9799;48.214;16.388;2024-01-10T16:03:47;0.40;99.90
19330;DHT22;9799;48.214;16.388;2024-01-10T16:07:09;0.40;99.90
19330;DHT22;9799;48.214;16.388;2024-01-10T16:10:30;0.50;99.90
19330;DHT22;9799;48.214;16.388;2024-01-10T16:13:51;0.40;99.90
19330;DHT22;9799;48.214;16.388;2024-01-10T16:17:12;0.30;99.90
19330;DHT22;9799;48.214;16.388;2024-01-10T16:20:35;0.30;99.90
19330;DHT22;9799;48.214;16.388;2024-01-10T16:23:57;0.30;99.90
19330;DHT22;9799;48.214;16.388;2024-01-10T16:27:18;0.30;99.90
19330;DHT22;9799;48.214;16.388;2024-01-10T16:30:39;0.20;99.90
19330;DHT22;9799;48.214;16.388;2024-01-10T16:34:00;0.20;99.90
19330;DHT22;9799;48.214;16.388;2024-01-10T16:37:23;0.10;99.90
19330;DHT22;9799;48.214;16.388;2024-01-10T16:40:44;0.20;99.90
19330;DHT22;9799;48.214;16.388;2024-01-10T16:44:05;0.20;99.90
19330;DHT22;9799;48.214;16.388;2024-01-10T16:47:27;0.20;99.90
19330;DHT22;9799;48.214;16.388;2024-01-10T16:50:48;0.10;99.90
19330;DHT22;9799;48.214;16.388;2024-01-10T16:54:10;0.10;99.90
19330;DHT22;9799;48.214;16.388;2024-01-10T16:57:31;0.10;99.90
19330;DHT22;9799;48.214;16.388;2024-01-10T17:00:52;0.10;99.90
19330;DHT22;9799;48.214;16.388;2024-01-10T17:04:14;0.10;99.90
19330;DHT22;9799;48.214;16.388;2024-01-10T17:07:35;0.20;99.90
19330;DHT22;9799;48.214;16.388;2024-01-10T17:10:57;0.10;99.90
19330;DHT22;9799;48.214;16.388;2024-01-10T17:14:19;0.10;99.90
19330;DHT22;9799;48.214;16.388;2024-01-10T17:17:40;0.00;99.90
19330;DHT22;9799;48.214;16.388;2024-01-10T17:21:01;0.10;99.90
19330;DHT22;9799;48.214;16.388;2024-01-10T17:24:22;0.00;99.90
19330;DHT22;9799;48.214;16.388;2024-01-10T17:27:45;0.10;99.90
19330;DHT22;9799;48.214;16.388;2024-01-10T17:31:06;0.10;99.90
19330;DHT22;9799;48.214;16.388;2024-01-10T17:34:27;0.10;99.90
19330;DHT22;9799;48.214;16.388;2024-01-10T17:37:49;0.20;99.90
19330;DHT22;9799;48.214;16.388;2024-01-10T17:41:11;0.20;99.90
19330;DHT22;9799;48.214;16.388;2024-01-10T17:44:34;0.10;99.90
19330;DHT22;9799;48.214;16.388;2024-01-10T17:47:57;0.10;99.90
19330;DHT22;9799;48.214;16.388;2024-01-10T17:51:18;0.00;99.90
19330;DHT22;9799;48.214;16.388;2024-01-10T17:54:41;0.00;99.90
19330;DHT22;9799;48.214;16.388;2024-01-10T17:58:04;-0.10;99.90
19330;DHT22;9799;48.214;16.388;2024-01-10T18:01:26;-0.10;99.90
19330;DHT22;9799;48.214;16.388;2024-01-10T18:04:48;0.00;99.90
19330;DHT22;9799;48.214;16.388;2024-01-10T18:08:09;0.00;99.90
19330;DHT22;9799;48.214;16.388;2024-01-10T18:11:30;0.00;99.90
19330;DHT22;9799;48.214;16.388;2024-01-10T18:14:52;0.00;99.90
19330;DHT22;9799;48.214;16.388;2024-01-10T18:18:14;-0.20;99.90
19330;DHT22;9799;48.214;16.388;2024-01-10T18:21:35;-0.20;99.90
19330;DHT22;9799;48.214;16.388;2024-01-10T18:24:57;-0.20;99.90
19330;DHT22;9799;48.214;16.388;2024-01-10T18:28:19;-0.20;99.90
19330;DHT22;9799;48.214;16.388;2024-01-10T18:31:40;-0.30;99.90
19330;DHT22;9799;48.214;16.388;2024-01-10T18:35:03;-0.40;99.90
19330;DHT22;9799;48.214;16.388;2024-01-10T18:38:24;-0.50;99.90
19330;DHT22;9799;48.214;16.388;2024-01-10T18:41:45;-0.50;99.90
19330;DHT22;9799;48.214;16.388;2024-01-10T18:45:07;-0.50;99.90
19330;DHT22;9799;48.214;16.388;2024-01-10T18:48:28;-0.50;99.90
19330;DHT22;9799;48.214;16.388;2024-01-10T18:51:51;-0.60;99.90
19330;DHT22;9799;48.214;16.388;2024-01-10T18:55:12;-0.60;99.90
19330;DHT22;9799;48.214;16.388;2024-01-10T18:58:34;-0.60;99.90
19330;DHT22;9799;48.214;16.388;2024-01-10T19:01:55;-0.60;99.90
19330;DHT22;9799;48.214;16.388;2024-01-10T19:05:16;-0.60;99.90
19330;DHT22;9799;48.214;16.388;2024-01-10T19:08:39;-0.60;99.90
19330;DHT22;9799;48.214;16.388;2024-01-10T19:12:00;-0.70;99.90
19330;DHT22;9799;48.214;16.388;2024-01-10T19:15:24;-0.70;99.90
19330;DHT22;9799;48.214;16.388;2024-01-10T19:18:45;-0.70;99.90
19330;DHT22;9799;48.214;16.388;2024-01-10T19:22:06;-0.70;99.90
19330;DHT22;9799;48.214;16.388;2024-01-10T19:25:29;-0.70;99.90
19330;DHT22;9799;48.214;16.388;2024-01-10T19:28:50;-0.70;99.90
19330;DHT22;9799;48.214;16.388;2024-01-10T19:32:12;-0.70;99.90
19330;DHT22;9799;48.214;16.388;2024-01-10T19:35:33;-0.60;99.90
19330;DHT22;9799;48.214;16.388;2024-01-10T19:38:54;-0.70;99.90
19330;DHT22;9799;48.214;16.388;2024-01-10T19:42:16;-0.80;99.90
19330;DHT22;9799;48.214;16.388;2024-01-10T19:45:38;-0.70;99.90
19330;DHT22;9799;48.214;16.388;2024-01-10T19:48:59;-0.70;99.90
19330;DHT22;9799;48.214;16.388;2024-01-10T19:52:21;-0.80;99.90
19330;DHT22;9799;48.214;16.388;2024-01-10T19:55:42;-0.80;99.90
19330;DHT22;9799;48.214;16.388;2024-01-10T19:59:04;-0.90;99.90
19330;DHT22;9799;48.214;16.388;2024-01-10T20:02:26;-0.90;99.90
19330;DHT22;9799;48.214;16.388;2024-01-10T20:05:47;-0.90;99.90
19330;DHT22;9799;48.214;16.388;2024-01-10T20:09:08;-0.90;99.90
19330;DHT22;9799;48.214;16.388;2024-01-10T20:12:31;-0.90;99.90
19330;DHT22;9799;48.214;16.388;2024-01-10T20:15:54;-0.90;99.90
19330;DHT22;9799;48.214;16.388;2024-01-10T20:19:15;-1.00;99.90
19330;DHT22;9799;48.214;16.388;2024-01-10T20:22:36;-0.90;99.90
19330;DHT22;9799;48.214;16.388;2024-01-10T20:25:57;-0.70;99.90
19330;DHT22;9799;48.214;16.388;2024-01-10T20:29:19;-0.90;99.90
19330;DHT22;9799;48.214;16.388;2024-01-10T20:32:41;-0.90;99.90
19330;DHT22;9799;48.214;16.388;2024-01-10T20:36:03;-1.00;99.90
19330;DHT22;9799;48.214;16.388;2024-01-10T20:39:24;-1.00;99.90
19330;DHT22;9799;48.214;16.388;2024-01-10T20:42:45;-1.00;99.90
19330;DHT22;9799;48.214;16.388;2024-01-10T20:46:07;-1.10;99.90
19330;DHT22;9799;48.214;16.388;2024-01-10T20:49:29;-1.10;99.90
19330;DHT22;9799;48.214;16.388;2024-01-10T20:52:50;-1.10;99.90
19330;DHT22;9799;48.214;16.388;2024-01-10T20:56:11;-1.10;99.90
19330;DHT22;9799;48.214;16.388;2024-01-10T20:59:33;-1.10;99.90
19330;DHT22;9799;48.214;16.388;2024-01-10T21:02:54;-1.00;99.90
19330;DHT22;9799;48.214;16.388;2024-01-10T21:06:17;-1.10;99.90
19330;DHT22;9799;48.214;16.388;2024-01-10T21:09:38;-1.20;99.90
19330;DHT22;9799;48.214;16.388;2024-01-10T21:13:01;-1.30;99.90
19330;DHT22;9799;48.214;16.388;2024-01-10T21:16:22;-1.30;99.90
19330;DHT22;9799;48.214;16.388;2024-01-10T21:19:43;-1.30;99.90
19330;DHT22;9799;48.214;16.388;2024-01-10T21:23:06;-1.30;99.90
19330;DHT22;9799;48.214;16.388;2024-01-10T21:26:27;-1.20;99.90